sensor_id;sensor_type;location;lat;lon;timestamp;pressure;altitude;pressure_sealevel;temperature;humidity
77011;BME280;65945;53.148;17.956;2024-03-23T00:56:00;100239.56;;;8.03;92.99
77011;BME280;65945;53.148;17.956;2024-03-23T00:58:26;100239.30;;;8.02;92.76
77011;BME280;65945;53.148;17.956;2024-03-23T01:00:53;100243.40;;;8.01;92.67
77011;BME280;65945;53.148;17.956;2024-03-23T01:03:19;100242.71;;;8.01;92.76
77011;BME280;65945;53.148;17.956;2024-03-23T01:05:46;100242.56;;;8.01;92.78
77011;BME280;65945;53.148;17.956;2024-03-23T01:08:12;100245.49;;;8.00;93.00
77011;BME280;65945;53.148;17.956;2024-03-23T01:10:39;100243.98;;;8.00;93.04
77011;BME280;65945;53.148;17.956;2024-03-23T01:13:05;100246.67;;;7.99;92.88
77011;BME280;65945;53.148;17.956;2024-03-23T01:15:32;100249.54;;;7.98;92.91
77011;BME280;65945;53.148;17.956;2024-03-23T01:17:58;100248.23;;;7.97;93.07
77011;BME280;65945;53.148;17.956;2024-03-23T01:20:25;100246.01;;;7.96;92.95
77011;BME280;65945;53.148;17.956;2024-03-23T01:22:52;100248.65;;;7.95;92.91
77011;BME280;65945;53.148;17.956;2024-03-23T01:25:18;100253.05;;;7.94;92.81
77011;BME280;65945;53.148;17.956;2024-03-23T01:27:45;100246.39;;;7.93;92.83
77011;BME280;65945;53.148;17.956;2024-03-23T01:30:11;100245.48;;;7.94;92.94
77011;BME280;65945;53.148;17.956;2024-03-23T01:32:40;100239.46;;;7.93;92.98
77011;BME280;65945;53.148;17.956;2024-03-23T01:35:07;100238.16;;;7.92;93.03
77011;BME280;65945;53.148;17.956;2024-03-23T01:37:33;100241.35;;;7.92;93.05
77011;BME280;65945;53.148;17.956;2024-03-23T01:40:00;100237.59;;;7.92;92.95
77011;BME280;65945;53.148;17.956;2024-03-23T01:42:26;100234.92;;;7.91;93.01
77011;BME280;65945;53.148;17.956;2024-03-23T01:44:53;100234.05;;;7.89;93.05
77011;BME280;65945;53.148;17.956;2024-03-23T01:47:20;100231.55;;;7.88;93.28
77011;BME280;65945;53.148;17.956;2024-03-23T01:49:46;100231.33;;;7.88;93.44
77011;BME280;65945;53.148;17.956;2024-03-23T01:52:13;100231.32;;;7.87;93.48
77011;BME280;65945;53.148;17.956;2024-03-23T01:54:40;100233.52;;;7.87;93.62
77011;BME280;65945;53.148;17.956;2024-03-23T01:57:07;100235.42;;;7.86;93.71
77011;BME280;65945;53.148;17.956;2024-03-23T01:59:34;100234.38;;;7.85;93.90
77011;BME280;65945;53.148;17.956;2024-03-23T02:02:00;100235.26;;;7.83;94.04
77011;BME280;65945;53.148;17.956;2024-03-23T02:04:28;100232.79;;;7.82;94.07
77011;BME280;65945;53.148;17.956;2024-03-23T02:06:55;100226.90;;;7.81;94.29
77011;BME280;65945;53.148;17.956;2024-03-23T02:09:21;100223.11;;;7.78;94.09
77011;BME280;65945;53.148;17.956;2024-03-23T02:11:48;100225.56;;;7.78;94.34
77011;BME280;65945;53.148;17.956;2024-03-23T02:14:14;100225.58;;;7.77;94.35
77011;BME280;65945;53.148;17.956;2024-03-23T02:16:41;100222.05;;;7.76;94.46
77011;BME280;65945;53.148;17.956;2024-03-23T02:19:09;100220.21;;;7.75;94.36
77011;BME280;65945;53.148;17.956;2024-03-23T02:21:36;100216.21;;;7.73;94.22
77011;BME280;65945;53.148;17.956;2024-03-23T02:24:03;100209.90;;;7.71;94.03
77011;BME280;65945;53.148;17.956;2024-03-23T02:26:29;100206.77;;;7.70;93.63
77011;BME280;65945;53.148;17.956;2024-03-23T02:28:56;100204.73;;;7.68;93.44
77011;BME280;65945;53.148;17.956;2024-03-23T02:31:22;100202.17;;;7.66;93.19
77011;BME280;65945;53.148;17.956;2024-03-23T02:33:49;100200.17;;;7.65;93.24
77011;BME280;65945;53.148;17.956;2024-03-23T02:36:15;100194.42;;;7.63;93.31
77011;BME280;65945;53.148;17.956;2024-03-23T02:38:42;100192.55;;;7.61;93.17
77011;BME280;65945;53.148;17.956;2024-03-23T02:41:09;100193.11;;;7.60;93.29
77011;BME280;65945;53.148;17.956;2024-03-23T02:43:35;100188.08;;;7.59;93.22
77011;BME280;65945;53.148;17.956;2024-03-23T02:46:02;100180.77;;;7.59;93.27
77011;BME280;65945;53.148;17.956;2024-03-23T02:48:29;100181.15;;;7.59;93.10
77011;BME280;65945;53.148;17.956;2024-03-23T02:50:55;100183.36;;;7.59;93.22
77011;BME280;65945;53.148;17.956;2024-03-23T02:53:22;100177.35;;;7.59;93.31
77011;BME280;65945;53.148;17.956;2024-03-23T02:55:49;100173.77;;;7.59;93.38
77011;BME280;65945;53.148;17.956;2024-03-23T02:58:15;100166.86;;;7.59;93.41
77011;BME280;65945;53.148;17.956;2024-03-23T03:00:42;100159.48;;;7.59;93.39
77011;BME280;65945;53.148;17.956;2024-03-23T03:03:08;100156.69;;;7.60;93.32
77011;BME280;65945;53.148;17.956;2024-03-23T03:05:35;100147.96;;;7.61;93.53
77011;BME280;65945;53.148;17.956;2024-03-23T03:08:02;100145.31;;;7.61;93.53
77011;BME280;65945;53.148;17.956;2024-03-23T03:10:29;100147.05;;;7.61;93.33
77011;BME280;65945;53.148;17.956;2024-03-23T03:12:55;100149.34;;;7.61;93.51
77011;BME280;65945;53.148;17.956;2024-03-23T03:15:22;100144.09;;;7.61;93.61
77011;BME280;65945;53.148;17.956;2024-03-23T03:17:48;100145.23;;;7.61;93.64
77011;BME280;65945;53.148;17.956;2024-03-23T03:20:15;100144.83;;;7.60;93.74
77011;BME280;65945;53.148;17.956;2024-03-23T03:22:44;100145.50;;;7.60;93.90
77011;BME280;65945;53.148;17.956;2024-03-23T03:25:10;100143.20;;;7.59;93.90
77011;BME280;65945;53.148;17.956;2024-03-23T03:27:37;100137.30;;;7.57;93.99
77011;BME280;65945;53.148;17.956;2024-03-23T03:30:04;100138.48;;;7.55;94.04
77011;BME280;65945;53.148;17.956;2024-03-23T03:32:32;100138.66;;;7.54;94.10
77011;BME280;65945;53.148;17.956;2024-03-23T03:34:59;100137.28;;;7.53;94.34
77011;BME280;65945;53.148;17.956;2024-03-23T03:37:26;100137.09;;;7.51;94.15
77011;BME280;65945;53.148;17.956;2024-03-23T03:39:52;100138.58;;;7.50;94.38
77011;BME280;65945;53.148;17.956;2024-03-23T03:42:19;100131.80;;;7.50;94.40
77011;BME280;65945;53.148;17.956;2024-03-23T03:44:45;100134.59;;;7.49;94.43
77011;BME280;65945;53.148;17.956;2024-03-23T03:47:12;100134.84;;;7.47;94.57
77011;BME280;65945;53.148;17.956;2024-03-23T03:49:38;100135.71;;;7.46;94.53
77011;BME280;65945;53.148;17.956;2024-03-23T03:52:05;100136.43;;;7.44;94.60
77011;BME280;65945;53.148;17.956;2024-03-23T03:54:33;100127.83;;;7.43;94.67
77011;BME280;65945;53.148;17.956;2024-03-23T03:56:59;100123.67;;;7.42;94.69
77011;BME280;65945;53.148;17.956;2024-03-23T03:59:26;100124.58;;;7.41;94.77
77011;BME280;65945;53.148;17.956;2024-03-23T04:01:52;100128.66;;;7.40;94.76
77011;BME280;65945;53.148;17.956;2024-03-23T04:04:19;100130.69;;;7.39;94.93
77011;BME280;65945;53.148;17.956;2024-03-23T04:06:46;100132.50;;;7.39;94.70
77011;BME280;65945;53.148;17.956;2024-03-23T04:09:13;100126.63;;;7.38;94.70
77011;BME280;65945;53.148;17.956;2024-03-23T04:11:40;100121.05;;;7.37;94.58
77011;BME280;65945;53.148;17.956;2024-03-23T04:14:06;100117.38;;;7.36;94.62
77011;BME280;65945;53.148;17.956;2024-03-23T04:16:35;100119.23;;;7.35;94.61
77011;BME280;65945;53.148;17.956;2024-03-23T04:19:02;100120.63;;;7.33;94.42
77011;BME280;65945;53.148;17.956;2024-03-23T04:21:29;100121.55;;;7.30;94.37
77011;BME280;65945;53.148;17.956;2024-03-23T04:23:55;100125.35;;;7.30;94.49
77011;BME280;65945;53.148;17.956;2024-03-23T04:26:22;100121.05;;;7.28;94.48
77011;BME280;65945;53.148;17.956;2024-03-23T04:28:48;100112.40;;;7.26;94.44
77011;BME280;65945;53.148;17.956;2024-03-23T04:31:15;100107.01;;;7.21;94.12
77011;BME280;65945;53.148;17.956;2024-03-23T04:33:41;100104.39;;;7.17;93.98
77011;BME280;65945;53.148;17.956;2024-03-23T04:36:08;100103.07;;;7.12;94.14
77011;BME280;65945;53.148;17.956;2024-03-23T04:38:35;100109.86;;;7.11;94.06
77011;BME280;65945;53.148;17.956;2024-03-23T04:41:02;100111.23;;;7.08;94.24
77011;BME280;65945;53.148;17.956;2024-03-23T04:43:29;100113.41;;;7.06;94.23
77011;BME280;65945;53.148;17.956;2024-03-23T04:45:56;100105.53;;;7.05;94.22
77011;BME280;65945;53.148;17.956;2024-03-23T04:48:23;100108.01;;;7.04;94.15
77011;BME280;65945;53.148;17.956;2024-03-23T04:50:54;100103.56;;;7.02;94.30
77011;BME280;65945;53.148;17.956;2024-03-23T04:53:22;100109.92;;;7.02;94.21
77011;BME280;65945;53.148;17.956;2024-03-23T04:55:49;100107.10;;;7.02;94.47
77011;BME280;65945;53.148;17.956;2024-03-23T04:58:15;100098.25;;;7.02;94.47
77011;BME280;65945;53.148;17.956;2024-03-23T05:00:42;100093.46;;;7.03;94.51
77011;BME280;65945;53.148;17.956;2024-03-23T05:03:09;100093.08;;;7.02;94.67
77011;BME280;65945;53.148;17.956;2024-03-23T05:05:35;100091.46;;;7.02;94.38
77011;BME280;65945;53.148;17.956;2024-03-23T05:08:02;100090.35;;;7.00;94.45
77011;BME280;65945;53.148;17.956;2024-03-23T05:10:28;100085.66;;;7.01;94.36
77011;BME280;65945;53.148;17.956;2024-03-23T05:12:55;100077.19;;;7.02;94.60
77011;BME280;65945;53.148;17.956;2024-03-23T05:15:22;100074.95;;;7.03;94.52
77011;BME280;65945;53.148;17.956;2024-03-23T05:17:49;100074.59;;;7.02;94.39
77011;BME280;65945;53.148;17.956;2024-03-23T05:20:15;100077.03;;;7.02;94.32
77011;BME280;65945;53.148;17.956;2024-03-23T05:22:42;100073.00;;;7.02;94.23
77011;BME280;65945;53.148;17.956;2024-03-23T05:25:09;100068.74;;;7.02;94.21
77011;BME280;65945;53.148;17.956;2024-03-23T05:27:36;100066.73;;;7.00;94.09
77011;BME280;65945;53.148;17.956;2024-03-23T05:30:03;100067.35;;;7.01;94.33
77011;BME280;65945;53.148;17.956;2024-03-23T05:32:30;100062.02;;;7.03;94.27
77011;BME280;65945;53.148;17.956;2024-03-23T05:34:56;100055.17;;;7.05;94.38
77011;BME280;65945;53.148;17.956;2024-03-23T05:37:23;100055.08;;;7.08;94.55
77011;BME280;65945;53.148;17.956;2024-03-23T05:39:50;100050.56;;;7.09;94.17
77011;BME280;65945;53.148;17.956;2024-03-23T05:42:17;100048.19;;;7.12;94.35
77011;BME280;65945;53.148;17.956;2024-03-23T05:44:46;100044.09;;;7.15;94.40
77011;BME280;65945;53.148;17.956;2024-03-23T05:47:13;100032.11;;;7.20;94.38
77011;BME280;65945;53.148;17.956;2024-03-23T05:49:41;100007.59;;;7.24;94.41
77011;BME280;65945;53.148;17.956;2024-03-23T05:52:10;100003.48;;;7.26;94.22
77011;BME280;65945;53.148;17.956;2024-03-23T05:54:37;100007.77;;;7.30;94.34
77011;BME280;65945;53.148;17.956;2024-03-23T05:57:04;100010.61;;;7.35;94.01
77011;BME280;65945;53.148;17.956;2024-03-23T05:59:30;100002.60;;;7.40;94.19
77011;BME280;65945;53.148;17.956;2024-03-23T06:01:57;99983.72;;;7.45;93.87
77011;BME280;65945;53.148;17.956;2024-03-23T06:04:24;99981.70;;;7.47;93.51
77011;BME280;65945;53.148;17.956;2024-03-23T06:06:51;100000.63;;;7.46;93.38
77011;BME280;65945;53.148;17.956;2024-03-23T06:09:18;100008.88;;;7.48;93.39
77011;BME280;65945;53.148;17.956;2024-03-23T06:11:46;100014.67;;;7.48;93.28
77011;BME280;65945;53.148;17.956;2024-03-23T06:14:12;100014.25;;;7.47;93.44
77011;BME280;65945;53.148;17.956;2024-03-23T06:16:39;100011.18;;;7.46;93.40
77011;BME280;65945;53.148;17.956;2024-03-23T06:19:05;100008.04;;;7.45;93.23
77011;BME280;65945;53.148;17.956;2024-03-23T06:21:33;100004.02;;;7.45;93.21
77011;BME280;65945;53.148;17.956;2024-03-23T06:23:59;100002.81;;;7.45;93.01
77011;BME280;65945;53.148;17.956;2024-03-23T06:26:26;100005.48;;;7.47;93.11
77011;BME280;65945;53.148;17.956;2024-03-23T06:28:53;100000.54;;;7.49;93.33
77011;BME280;65945;53.148;17.956;2024-03-23T06:31:19;100002.22;;;7.49;93.28
77011;BME280;65945;53.148;17.956;2024-03-23T06:33:46;100002.09;;;7.51;93.25
77011;BME280;65945;53.148;17.956;2024-03-23T06:36:12;100008.26;;;7.51;93.33
77011;BME280;65945;53.148;17.956;2024-03-23T06:38:39;100010.77;;;7.51;93.06
77011;BME280;65945;53.148;17.956;2024-03-23T06:41:05;100011.94;;;7.52;93.06
77011;BME280;65945;53.148;17.956;2024-03-23T06:43:32;100007.92;;;7.52;93.06
77011;BME280;65945;53.148;17.956;2024-03-23T06:45:58;100007.03;;;7.54;92.94
77011;BME280;65945;53.148;17.956;2024-03-23T06:48:25;100004.41;;;7.55;93.15
77011;BME280;65945;53.148;17.956;2024-03-23T06:50:58;100003.83;;;7.56;92.90
77011;BME280;65945;53.148;17.956;2024-03-23T06:53:25;100004.20;;;7.56;92.95
77011;BME280;65945;53.148;17.956;2024-03-23T06:55:53;100005.11;;;7.56;93.15
77011;BME280;65945;53.148;17.956;2024-03-23T06:58:21;100002.15;;;7.53;93.00
77011;BME280;65945;53.148;17.956;2024-03-23T07:00:48;100001.23;;;7.49;92.95
77011;BME280;65945;53.148;17.956;2024-03-23T07:03:16;100000.68;;;7.48;93.31
77011;BME280;65945;53.148;17.956;2024-03-23T07:05:43;99999.92;;;7.49;93.58
77011;BME280;65945;53.148;17.956;2024-03-23T07:08:10;99998.50;;;7.49;93.63
77011;BME280;65945;53.148;17.956;2024-03-23T07:10:39;99997.73;;;7.49;93.75
77011;BME280;65945;53.148;17.956;2024-03-23T07:13:06;100003.35;;;7.49;93.82
77011;BME280;65945;53.148;17.956;2024-03-23T07:15:33;100009.88;;;7.48;94.02
77011;BME280;65945;53.148;17.956;2024-03-23T07:18:00;100012.73;;;7.47;93.94
77011;BME280;65945;53.148;17.956;2024-03-23T07:20:26;100006.69;;;7.45;94.08
77011;BME280;65945;53.148;17.956;2024-03-23T07:22:53;99998.73;;;7.43;94.21
77011;BME280;65945;53.148;17.956;2024-03-23T07:25:19;99988.61;;;7.40;94.25
77011;BME280;65945;53.148;17.956;2024-03-23T07:27:47;99989.45;;;7.36;94.24
77011;BME280;65945;53.148;17.956;2024-03-23T07:30:14;99991.16;;;7.35;94.30
77011;BME280;65945;53.148;17.956;2024-03-23T07:32:40;99994.30;;;7.36;94.34
77011;BME280;65945;53.148;17.956;2024-03-23T07:35:10;99987.73;;;7.38;94.22
77011;BME280;65945;53.148;17.956;2024-03-23T07:37:36;99984.79;;;7.39;94.04
77011;BME280;65945;53.148;17.956;2024-03-23T07:40:03;99980.29;;;7.38;94.29
77011;BME280;65945;53.148;17.956;2024-03-23T07:42:30;99978.98;;;7.35;94.14
77011;BME280;65945;53.148;17.956;2024-03-23T07:44:57;99980.60;;;7.29;94.17
77011;BME280;65945;53.148;17.956;2024-03-23T07:47:24;99983.88;;;7.26;94.35
77011;BME280;65945;53.148;17.956;2024-03-23T07:49:50;99983.81;;;7.24;94.36
77011;BME280;65945;53.148;17.956;2024-03-23T07:52:17;99979.28;;;7.22;94.49
77011;BME280;65945;53.148;17.956;2024-03-23T07:54:43;99975.95;;;7.19;94.75
77011;BME280;65945;53.148;17.956;2024-03-23T07:57:10;99969.89;;;7.14;94.77
77011;BME280;65945;53.148;17.956;2024-03-23T07:59:36;99970.80;;;7.10;95.01
77011;BME280;65945;53.148;17.956;2024-03-23T08:02:03;99966.88;;;7.08;95.13
77011;BME280;65945;53.148;17.956;2024-03-23T08:04:30;99964.39;;;7.06;95.20
77011;BME280;65945;53.148;17.956;2024-03-23T08:06:56;99957.54;;;7.05;95.37
77011;BME280;65945;53.148;17.956;2024-03-23T08:09:23;99948.65;;;7.03;95.37
77011;BME280;65945;53.148;17.956;2024-03-23T08:11:49;99941.09;;;7.01;95.38
77011;BME280;65945;53.148;17.956;2024-03-23T08:14:16;99940.61;;;7.00;95.23
77011;BME280;65945;53.148;17.956;2024-03-23T08:16:42;99938.02;;;7.00;95.36
77011;BME280;65945;53.148;17.956;2024-03-23T08:19:15;99941.04;;;6.99;95.28
77011;BME280;65945;53.148;17.956;2024-03-23T08:21:41;99937.44;;;6.95;94.33
77011;BME280;65945;53.148;17.956;2024-03-23T08:24:08;99933.23;;;6.84;92.95
77011;BME280;65945;53.148;17.956;2024-03-23T08:26:35;99928.63;;;6.77;92.86
77011;BME280;65945;53.148;17.956;2024-03-23T08:29:03;99930.11;;;6.69;93.05
77011;BME280;65945;53.148;17.956;2024-03-23T08:31:30;99927.79;;;6.61;93.01
77011;BME280;65945;53.148;17.956;2024-03-23T08:33:57;99923.84;;;6.56;93.29
77011;BME280;65945;53.148;17.956;2024-03-23T08:36:23;99921.63;;;6.49;93.49
77011;BME280;65945;53.148;17.956;2024-03-23T08:38:50;99923.10;;;6.47;93.68
77011;BME280;65945;53.148;17.956;2024-03-23T08:41:20;99920.08;;;6.45;93.89
77011;BME280;65945;53.148;17.956;2024-03-23T08:43:46;99916.77;;;6.43;94.15
77011;BME280;65945;53.148;17.956;2024-03-23T08:46:15;99918.48;;;6.40;94.31
77011;BME280;65945;53.148;17.956;2024-03-23T08:48:46;99924.16;;;6.36;94.16
77011;BME280;65945;53.148;17.956;2024-03-23T08:51:16;99933.77;;;6.35;94.32
77011;BME280;65945;53.148;17.956;2024-03-23T08:53:43;99931.89;;;6.36;94.33
77011;BME280;65945;53.148;17.956;2024-03-23T08:56:11;99927.46;;;6.37;94.32
77011;BME280;65945;53.148;17.956;2024-03-23T08:58:38;99918.89;;;6.38;94.64
77011;BME280;65945;53.148;17.956;2024-03-23T09:01:10;99910.10;;;6.37;94.53
77011;BME280;65945;53.148;17.956;2024-03-23T09:03:37;99907.50;;;6.34;94.57
77011;BME280;65945;53.148;17.956;2024-03-23T09:06:11;99901.52;;;6.29;94.75
77011;BME280;65945;53.148;17.956;2024-03-23T09:08:39;99887.06;;;6.25;94.90
77011;BME280;65945;53.148;17.956;2024-03-23T09:11:08;99880.80;;;6.23;94.97
77011;BME280;65945;53.148;17.956;2024-03-23T09:13:36;99873.84;;;6.22;94.96
77011;BME280;65945;53.148;17.956;2024-03-23T09:16:04;99879.58;;;6.20;95.29
77011;BME280;65945;53.148;17.956;2024-03-23T09:18:32;99873.66;;;6.15;94.51
77011;BME280;65945;53.148;17.956;2024-03-23T09:20:59;99870.02;;;6.12;94.41
77011;BME280;65945;53.148;17.956;2024-03-23T09:23:26;99874.10;;;6.11;94.14
77011;BME280;65945;53.148;17.956;2024-03-23T09:25:53;99876.34;;;6.10;93.84
77011;BME280;65945;53.148;17.956;2024-03-23T09:28:19;99871.79;;;6.02;92.32
77011;BME280;65945;53.148;17.956;2024-03-23T09:30:46;99864.59;;;5.94;92.35
77011;BME280;65945;53.148;17.956;2024-03-23T09:33:13;99862.86;;;5.89;92.51
77011;BME280;65945;53.148;17.956;2024-03-23T09:35:40;99856.39;;;5.88;92.91
77011;BME280;65945;53.148;17.956;2024-03-23T09:38:07;99849.32;;;5.92;93.14
77011;BME280;65945;53.148;17.956;2024-03-23T09:40:41;99843.85;;;5.98;93.62
77011;BME280;65945;53.148;17.956;2024-03-23T09:43:09;99844.20;;;6.05;93.54
77011;BME280;65945;53.148;17.956;2024-03-23T09:45:38;99837.44;;;6.11;93.73
77011;BME280;65945;53.148;17.956;2024-03-23T09:48:08;99840.39;;;6.13;93.17
77011;BME280;65945;53.148;17.956;2024-03-23T09:50:39;99841.02;;;6.11;92.78
77011;BME280;65945;53.148;17.956;2024-03-23T09:53:11;99832.36;;;6.11;93.25
77011;BME280;65945;53.148;17.956;2024-03-23T09:55:42;99829.70;;;6.11;93.31
77011;BME280;65945;53.148;17.956;2024-03-23T09:58:13;99830.56;;;6.12;93.58
77011;BME280;65945;53.148;17.956;2024-03-23T10:00:40;99827.36;;;6.11;93.69
77011;BME280;65945;53.148;17.956;2024-03-23T10:03:07;99821.66;;;6.11;93.30
77011;BME280;65945;53.148;17.956;2024-03-23T10:05:35;99817.77;;;6.12;93.43
77011;BME280;65945;53.148;17.956;2024-03-23T10:10:41;99828.44;;;6.17;93.07
77011;BME280;65945;53.148;17.956;2024-03-23T10:13:08;99823.45;;;6.15;92.84
77011;BME280;65945;53.148;17.956;2024-03-23T10:15:35;99819.83;;;6.16;92.95
77011;BME280;65945;53.148;17.956;2024-03-23T10:18:18;99818.23;;;6.16;92.57
77011;BME280;65945;53.148;17.956;2024-03-23T10:23:26;99816.79;;;6.16;92.77
77011;BME280;65945;53.148;17.956;2024-03-23T10:25:53;99811.19;;;6.16;92.76
77011;BME280;65945;53.148;17.956;2024-03-23T10:28:20;99804.30;;;6.17;92.47
77011;BME280;65945;53.148;17.956;2024-03-23T10:30:46;99797.15;;;6.19;92.61
77011;BME280;65945;53.148;17.956;2024-03-23T10:33:13;99800.54;;;6.21;92.16
77011;BME280;65945;53.148;17.956;2024-03-23T10:35:41;99804.80;;;6.19;91.21
77011;BME280;65945;53.148;17.956;2024-03-23T10:38:08;99801.29;;;6.15;90.99
77011;BME280;65945;53.148;17.956;2024-03-23T10:40:35;99793.73;;;6.16;91.66
77011;BME280;65945;53.148;17.956;2024-03-23T10:43:03;99791.44;;;6.15;90.91
77011;BME280;65945;53.148;17.956;2024-03-23T10:45:30;99793.20;;;6.16;91.33
77011;BME280;65945;53.148;17.956;2024-03-23T10:47:57;99789.70;;;6.19;91.97
77011;BME280;65945;53.148;17.956;2024-03-23T10:50:24;99783.11;;;6.19;91.23
77011;BME280;65945;53.148;17.956;2024-03-23T10:52:52;99776.42;;;6.19;91.27
77011;BME280;65945;53.148;17.956;2024-03-23T10:55:21;99774.58;;;6.20;91.40
77011;BME280;65945;53.148;17.956;2024-03-23T10:57:54;99766.20;;;6.19;91.04
77011;BME280;65945;53.148;17.956;2024-03-23T11:00:21;99761.94;;;6.19;91.14
77011;BME280;65945;53.148;17.956;2024-03-23T11:02:49;99758.52;;;6.22;91.07
77011;BME280;65945;53.148;17.956;2024-03-23T11:07:53;99740.97;;;6.30;91.40
77011;BME280;65945;53.148;17.956;2024-03-23T11:10:29;99740.32;;;6.31;90.56
77011;BME280;65945;53.148;17.956;2024-03-23T11:12:57;99737.71;;;6.33;90.67
77011;BME280;65945;53.148;17.956;2024-03-23T11:15:24;99727.67;;;6.36;90.96
77011;BME280;65945;53.148;17.956;2024-03-23T11:18:09;99719.06;;;6.37;91.07
77011;BME280;65945;53.148;17.956;2024-03-23T11:20:35;99722.61;;;6.37;90.80
77011;BME280;65945;53.148;17.956;2024-03-23T11:23:02;99730.23;;;6.37;90.95
77011;BME280;65945;53.148;17.956;2024-03-23T11:25:29;99728.48;;;6.38;90.62
77011;BME280;65945;53.148;17.956;2024-03-23T11:27:58;99725.46;;;6.39;90.25
77011;BME280;65945;53.148;17.956;2024-03-23T11:30:26;99721.62;;;6.40;90.38
77011;BME280;65945;53.148;17.956;2024-03-23T11:32:55;99724.72;;;6.42;90.45
77011;BME280;65945;53.148;17.956;2024-03-23T11:35:38;99720.77;;;6.48;90.74
77011;BME280;65945;53.148;17.956;2024-03-23T11:38:13;99714.82;;;6.54;90.51
77011;BME280;65945;53.148;17.956;2024-03-23T11:40:42;99710.52;;;6.58;90.84
77011;BME280;65945;53.148;17.956;2024-03-23T11:43:12;99711.29;;;6.62;90.72
77011;BME280;65945;53.148;17.956;2024-03-23T11:45:47;99704.84;;;6.59;89.79
77011;BME280;65945;53.148;17.956;2024-03-23T11:48:14;99703.11;;;6.53;89.44
77011;BME280;65945;53.148;17.956;2024-03-23T11:50:43;99705.70;;;6.47;89.47
77011;BME280;65945;53.148;17.956;2024-03-23T11:53:27;99699.44;;;6.42;89.63
77011;BME280;65945;53.148;17.956;2024-03-23T11:55:58;99695.77;;;6.37;90.33
77011;BME280;65945;53.148;17.956;2024-03-23T11:58:26;99692.96;;;6.35;90.50
77011;BME280;65945;53.148;17.956;2024-03-23T12:01:01;99685.88;;;6.33;90.74
77011;BME280;65945;53.148;17.956;2024-03-23T12:03:29;99678.70;;;6.34;90.83
77011;BME280;65945;53.148;17.956;2024-03-23T12:06:00;99671.60;;;6.33;90.71
77011;BME280;65945;53.148;17.956;2024-03-23T12:11:08;99655.80;;;6.28;91.21
77011;BME280;65945;53.148;17.956;2024-03-23T12:13:36;99646.71;;;6.26;90.53
77011;BME280;65945;53.148;17.956;2024-03-23T12:16:17;99646.41;;;6.26;91.29
77011;BME280;65945;53.148;17.956;2024-03-23T12:18:45;99642.86;;;6.30;91.45
77011;BME280;65945;53.148;17.956;2024-03-23T12:21:12;99648.08;;;6.33;91.95
77011;BME280;65945;53.148;17.956;2024-03-23T12:23:40;99655.43;;;6.33;91.82
77011;BME280;65945;53.148;17.956;2024-03-23T12:26:07;99666.02;;;6.31;91.62
77011;BME280;65945;53.148;17.956;2024-03-23T12:28:34;99671.16;;;6.30;91.74
77011;BME280;65945;53.148;17.956;2024-03-23T12:31:01;99674.34;;;6.29;92.04
77011;BME280;65945;53.148;17.956;2024-03-23T12:33:27;99666.05;;;6.29;91.83
77011;BME280;65945;53.148;17.956;2024-03-23T12:35:54;99654.55;;;6.30;92.33
77011;BME280;65945;53.148;17.956;2024-03-23T12:38:21;99634.11;;;6.29;92.26
77011;BME280;65945;53.148;17.956;2024-03-23T12:40:51;99619.89;;;6.27;92.54
77011;BME280;65945;53.148;17.956;2024-03-23T12:43:18;99620.73;;;6.25;92.97
77011;BME280;65945;53.148;17.956;2024-03-23T12:45:48;99627.20;;;6.22;92.88
77011;BME280;65945;53.148;17.956;2024-03-23T12:48:16;99627.52;;;6.19;92.88
77011;BME280;65945;53.148;17.956;2024-03-23T12:50:43;99622.35;;;6.16;93.46
77011;BME280;65945;53.148;17.956;2024-03-23T12:53:09;99611.56;;;6.12;93.61
77011;BME280;65945;53.148;17.956;2024-03-23T12:55:36;99608.13;;;6.07;93.79
77011;BME280;65945;53.148;17.956;2024-03-23T12:58:03;99598.52;;;6.02;93.98
77011;BME280;65945;53.148;17.956;2024-03-23T13:00:29;99583.74;;;5.99;94.35
77011;BME280;65945;53.148;17.956;2024-03-23T13:02:56;99571.25;;;5.97;94.93
77011;BME280;65945;53.148;17.956;2024-03-23T13:05:22;99557.20;;;5.96;94.96
77011;BME280;65945;53.148;17.956;2024-03-23T13:07:49;99535.25;;;5.94;94.73
77011;BME280;65945;53.148;17.956;2024-03-23T13:10:15;99540.19;;;5.95;94.14
77011;BME280;65945;53.148;17.956;2024-03-23T13:12:42;99552.71;;;5.95;94.01
77011;BME280;65945;53.148;17.956;2024-03-23T13:15:09;99563.09;;;5.91;94.22
77011;BME280;65945;53.148;17.956;2024-03-23T13:17:35;99572.48;;;5.88;94.03
77011;BME280;65945;53.148;17.956;2024-03-23T13:20:02;99573.26;;;5.82;92.97
77011;BME280;65945;53.148;17.956;2024-03-23T13:22:30;99580.13;;;5.76;91.92
77011;BME280;65945;53.148;17.956;2024-03-23T13:24:56;99580.70;;;5.71;92.00
77011;BME280;65945;53.148;17.956;2024-03-23T13:27:23;99575.35;;;5.66;92.71
77011;BME280;65945;53.148;17.956;2024-03-23T13:29:49;99576.36;;;5.63;92.68
77011;BME280;65945;53.148;17.956;2024-03-23T13:32:16;99581.59;;;5.60;92.22
77011;BME280;65945;53.148;17.956;2024-03-23T13:34:43;99585.02;;;5.54;92.31
77011;BME280;65945;53.148;17.956;2024-03-23T13:37:10;99582.42;;;5.48;91.36
77011;BME280;65945;53.148;17.956;2024-03-23T13:39:36;99583.36;;;5.43;91.71
77011;BME280;65945;53.148;17.956;2024-03-23T13:42:03;99583.47;;;5.38;91.77
77011;BME280;65945;53.148;17.956;2024-03-23T13:44:30;99595.91;;;5.35;92.20
77011;BME280;65945;53.148;17.956;2024-03-23T13:46:56;99597.35;;;5.33;92.30
77011;BME280;65945;53.148;17.956;2024-03-23T13:51:54;99588.36;;;5.25;92.59
77011;BME280;65945;53.148;17.956;2024-03-23T13:54:21;99596.77;;;5.22;92.64
77011;BME280;65945;53.148;17.956;2024-03-23T13:56:49;99602.63;;;5.17;92.64
77011;BME280;65945;53.148;17.956;2024-03-23T13:59:16;99615.51;;;5.12;93.16
77011;BME280;65945;53.148;17.956;2024-03-23T14:01:44;99627.84;;;5.06;93.57
77011;BME280;65945;53.148;17.956;2024-03-23T14:04:12;99623.23;;;5.00;92.71